sensor_id;sensor_type;location;lat;lon;timestamp;P1;durP1;ratioP1;P2;durP2;ratioP2
47309;SDS011;33046;52.270;6.832;2024-02-04T00:01:19;18.00;;;12.35;;
47309;SDS011;33046;52.270;6.832;2024-02-04T00:03:26;23.67;;;14.07;;
47309;SDS011;33046;52.270;6.832;2024-02-04T00:05:33;15.10;;;11.75;;
47309;SDS011;33046;52.270;6.832;2024-02-04T00:07:40;17.30;;;12.27;;
47309;SDS011;33046;52.270;6.832;2024-02-04T00:09:47;13.77;;;12.38;;
47309;SDS011;33046;52.270;6.832;2024-02-04T00:11:53;15.55;;;11.55;;
47309;SDS011;33046;52.270;6.832;2024-02-04T00:14:00;14.68;;;11.50;;
47309;SDS011;33046;52.270;6.832;2024-02-04T00:16:09;17.92;;;12.18;;
47309;SDS011;33046;52.270;6.832;2024-02-04T00:18:15;14.25;;;12.70;;
47309;SDS011;33046;52.270;6.832;2024-02-04T00:20:22;15.80;;;12.20;;
47309;SDS011;33046;52.270;6.832;2024-02-04T00:22:29;14.13;;;12.27;;
47309;SDS011;33046;52.270;6.832;2024-02-04T00:24:36;14.63;;;12.77;;
47309;SDS011;33046;52.270;6.832;2024-02-04T00:26:43;16.58;;;12.30;;
47309;SDS011;33046;52.270;6.832;2024-02-04T00:28:50;16.00;;;12.90;;
47309;SDS011;33046;52.270;6.832;2024-02-04T00:30:57;10.88;;;9.35;;
47309;SDS011;33046;52.270;6.832;2024-02-04T00:33:05;11.88;;;9.27;;
47309;SDS011;33046;52.270;6.832;2024-02-04T00:35:12;10.55;;;8.27;;
47309;SDS011;33046;52.270;6.832;2024-02-04T00:37:19;12.65;;;10.18;;
47309;SDS011;33046;52.270;6.832;2024-02-04T00:39:26;7.70;;;7.00;;
47309;SDS011;33046;52.270;6.832;2024-02-04T00:41:32;7.43;;;6.47;;
47309;SDS011;33046;52.270;6.832;2024-02-04T00:43:39;8.30;;;6.75;;
47309;SDS011;33046;52.270;6.832;2024-02-04T00:45:46;8.75;;;7.13;;
47309;SDS011;33046;52.270;6.832;2024-02-04T00:47:53;8.82;;;7.00;;
47309;SDS011;33046;52.270;6.832;2024-02-04T00:50:01;9.95;;;6.25;;
47309;SDS011;33046;52.270;6.832;2024-02-04T00:52:09;7.22;;;6.53;;
47309;SDS011;33046;52.270;6.832;2024-02-04T00:54:15;10.00;;;7.00;;
47309;SDS011;33046;52.270;6.832;2024-02-04T00:56:22;7.65;;;6.63;;
47309;SDS011;33046;52.270;6.832;2024-02-04T00:58:29;8.02;;;6.88;;
47309;SDS011;33046;52.270;6.832;2024-02-04T01:00:36;10.48;;;7.63;;
47309;SDS011;33046;52.270;6.832;2024-02-04T01:02:43;7.82;;;7.13;;
47309;SDS011;33046;52.270;6.832;2024-02-04T01:04:50;8.05;;;7.35;;
47309;SDS011;33046;52.270;6.832;2024-02-04T01:06:58;8.07;;;7.22;;
47309;SDS011;33046;52.270;6.832;2024-02-04T01:09:05;7.65;;;6.85;;
47309;SDS011;33046;52.270;6.832;2024-02-04T01:11:12;8.52;;;7.72;;
47309;SDS011;33046;52.270;6.832;2024-02-04T01:13:19;8.80;;;7.95;;
47309;SDS011;33046;52.270;6.832;2024-02-04T01:15:26;9.25;;;8.25;;
47309;SDS011;33046;52.270;6.832;2024-02-04T01:17:33;8.98;;;8.10;;
47309;SDS011;33046;52.270;6.832;2024-02-04T01:19:40;9.52;;;8.18;;
47309;SDS011;33046;52.270;6.832;2024-02-04T01:21:47;7.75;;;7.00;;
47309;SDS011;33046;52.270;6.832;2024-02-04T01:23:55;8.40;;;7.63;;
47309;SDS011;33046;52.270;6.832;2024-02-04T01:26:02;8.85;;;8.05;;
47309;SDS011;33046;52.270;6.832;2024-02-04T01:28:09;10.40;;;7.93;;
47309;SDS011;33046;52.270;6.832;2024-02-04T01:30:16;8.50;;;7.72;;
47309;SDS011;33046;52.270;6.832;2024-02-04T01:32:23;9.18;;;8.25;;
47309;SDS011;33046;52.270;6.832;2024-02-04T01:34:29;7.97;;;7.18;;
47309;SDS011;33046;52.270;6.832;2024-02-04T01:36:36;11.25;;;9.27;;
47309;SDS011;33046;52.270;6.832;2024-02-04T01:38:43;8.27;;;7.40;;
47309;SDS011;33046;52.270;6.832;2024-02-04T01:40:52;9.38;;;8.40;;
47309;SDS011;33046;52.270;6.832;2024-02-04T01:42:58;9.82;;;8.07;;
47309;SDS011;33046;52.270;6.832;2024-02-04T01:45:05;11.07;;;10.07;;
47309;SDS011;33046;52.270;6.832;2024-02-04T01:47:13;8.63;;;7.82;;
47309;SDS011;33046;52.270;6.832;2024-02-04T01:49:20;8.65;;;7.72;;
47309;SDS011;33046;52.270;6.832;2024-02-04T01:51:26;8.88;;;7.05;;
47309;SDS011;33046;52.270;6.832;2024-02-04T01:53:33;8.35;;;7.05;;
47309;SDS011;33046;52.270;6.832;2024-02-04T01:55:42;8.05;;;6.13;;
47309;SDS011;33046;52.270;6.832;2024-02-04T01:57:50;10.20;;;7.03;;
47309;SDS011;33046;52.270;6.832;2024-02-04T01:59:57;6.43;;;5.55;;
47309;SDS011;33046;52.270;6.832;2024-02-04T02:02:04;7.60;;;5.60;;
47309;SDS011;33046;52.270;6.832;2024-02-04T02:04:12;8.02;;;6.50;;
47309;SDS011;33046;52.270;6.832;2024-02-04T02:06:19;6.15;;;5.53;;
47309;SDS011;33046;52.270;6.832;2024-02-04T02:08:27;5.45;;;4.82;;
47309;SDS011;33046;52.270;6.832;2024-02-04T02:10:34;5.53;;;4.93;;
47309;SDS011;33046;52.270;6.832;2024-02-04T02:12:42;6.43;;;5.82;;
47309;SDS011;33046;52.270;6.832;2024-02-04T02:15:01;6.20;;;5.30;;
47309;SDS011;33046;52.270;6.832;2024-02-04T02:17:14;5.65;;;5.15;;
47309;SDS011;33046;52.270;6.832;2024-02-04T02:19:30;6.57;;;5.28;;
47309;SDS011;33046;52.270;6.832;2024-02-04T02:21:47;5.65;;;4.80;;
47309;SDS011;33046;52.270;6.832;2024-02-04T02:24:09;4.95;;;4.32;;
47309;SDS011;33046;52.270;6.832;2024-02-04T02:26:18;5.40;;;4.47;;
47309;SDS011;33046;52.270;6.832;2024-02-04T02:28:26;5.78;;;4.35;;
47309;SDS011;33046;52.270;6.832;2024-02-04T02:30:32;4.00;;;3.60;;
47309;SDS011;33046;52.270;6.832;2024-02-04T02:32:40;3.90;;;3.03;;
47309;SDS011;33046;52.270;6.832;2024-02-04T02:34:47;3.60;;;3.17;;
47309;SDS011;33046;52.270;6.832;2024-02-04T02:36:55;8.70;;;4.90;;
47309;SDS011;33046;52.270;6.832;2024-02-04T02:39:17;2.90;;;2.58;;
47309;SDS011;33046;52.270;6.832;2024-02-04T02:41:28;5.65;;;3.88;;
47309;SDS011;33046;52.270;6.832;2024-02-04T02:43:37;3.40;;;2.45;;
47309;SDS011;33046;52.270;6.832;2024-02-04T02:45:47;3.53;;;2.60;;
47309;SDS011;33046;52.270;6.832;2024-02-04T02:47:54;4.15;;;2.47;;
47309;SDS011;33046;52.270;6.832;2024-02-04T02:50:02;2.92;;;2.17;;
47309;SDS011;33046;52.270;6.832;2024-02-04T02:52:09;6.38;;;2.70;;
47309;SDS011;33046;52.270;6.832;2024-02-04T02:54:16;4.50;;;2.67;;
47309;SDS011;33046;52.270;6.832;2024-02-04T02:56:22;5.35;;;2.50;;
47309;SDS011;33046;52.270;6.832;2024-02-04T02:58:31;2.88;;;2.03;;
47309;SDS011;33046;52.270;6.832;2024-02-04T03:00:38;3.35;;;2.33;;
47309;SDS011;33046;52.270;6.832;2024-02-04T03:02:45;4.22;;;2.15;;
47309;SDS011;33046;52.270;6.832;2024-02-04T03:04:51;3.55;;;1.80;;
47309;SDS011;33046;52.270;6.832;2024-02-04T03:06:58;6.30;;;1.73;;
47309;SDS011;33046;52.270;6.832;2024-02-04T03:09:05;6.30;;;2.22;;
47309;SDS011;33046;52.270;6.832;2024-02-04T03:11:12;3.40;;;2.20;;
47309;SDS011;33046;52.270;6.832;2024-02-04T03:13:19;6.63;;;3.10;;
47309;SDS011;33046;52.270;6.832;2024-02-04T03:15:27;5.60;;;2.70;;
47309;SDS011;33046;52.270;6.832;2024-02-04T03:17:34;4.55;;;2.65;;
47309;SDS011;33046;52.270;6.832;2024-02-04T03:19:41;5.82;;;2.63;;
47309;SDS011;33046;52.270;6.832;2024-02-04T03:21:48;7.10;;;3.33;;
47309;SDS011;33046;52.270;6.832;2024-02-04T03:23:55;4.30;;;3.13;;
47309;SDS011;33046;52.270;6.832;2024-02-04T03:26:02;7.72;;;2.95;;
47309;SDS011;33046;52.270;6.832;2024-02-04T03:28:09;5.13;;;2.92;;
47309;SDS011;33046;52.270;6.832;2024-02-04T03:30:16;4.82;;;3.00;;
47309;SDS011;33046;52.270;6.832;2024-02-04T03:32:24;6.47;;;3.20;;
47309;SDS011;33046;52.270;6.832;2024-02-04T03:34:31;6.38;;;2.53;;
47309;SDS011;33046;52.270;6.832;2024-02-04T03:36:39;5.93;;;2.83;;
47309;SDS011;33046;52.270;6.832;2024-02-04T03:38:46;5.32;;;2.70;;
47309;SDS011;33046;52.270;6.832;2024-02-04T03:40:54;4.80;;;2.78;;
47309;SDS011;33046;52.270;6.832;2024-02-04T03:43:01;6.10;;;3.53;;
47309;SDS011;33046;52.270;6.832;2024-02-04T03:45:08;8.90;;;3.55;;
47309;SDS011;33046;52.270;6.832;2024-02-04T03:47:15;7.25;;;3.75;;
47309;SDS011;33046;52.270;6.832;2024-02-04T03:49:24;4.80;;;3.30;;
47309;SDS011;33046;52.270;6.832;2024-02-04T03:51:31;6.57;;;3.35;;
47309;SDS011;33046;52.270;6.832;2024-02-04T03:53:38;5.03;;;3.15;;
47309;SDS011;33046;52.270;6.832;2024-02-04T03:55:45;5.70;;;3.10;;
47309;SDS011;33046;52.270;6.832;2024-02-04T03:57:52;4.18;;;3.40;;
47309;SDS011;33046;52.270;6.832;2024-02-04T04:00:00;4.68;;;3.28;;
47309;SDS011;33046;52.270;6.832;2024-02-04T04:02:17;8.13;;;3.50;;
47309;SDS011;33046;52.270;6.832;2024-02-04T04:04:25;9.85;;;5.68;;
47309;SDS011;33046;52.270;6.832;2024-02-04T04:06:32;5.50;;;3.65;;
47309;SDS011;33046;52.270;6.832;2024-02-04T04:08:39;7.00;;;3.78;;
47309;SDS011;33046;52.270;6.832;2024-02-04T04:10:45;13.52;;;5.43;;
47309;SDS011;33046;52.270;6.832;2024-02-04T04:12:52;8.05;;;3.35;;
47309;SDS011;33046;52.270;6.832;2024-02-04T04:14:59;8.85;;;3.78;;
47309;SDS011;33046;52.270;6.832;2024-02-04T04:17:06;6.63;;;2.78;;
47309;SDS011;33046;52.270;6.832;2024-02-04T04:19:13;7.45;;;3.00;;
47309;SDS011;33046;52.270;6.832;2024-02-04T04:21:21;5.88;;;2.00;;
47309;SDS011;33046;52.270;6.832;2024-02-04T04:23:28;10.52;;;4.13;;
47309;SDS011;33046;52.270;6.832;2024-02-04T04:25:35;9.27;;;1.73;;
47309;SDS011;33046;52.270;6.832;2024-02-04T04:27:41;5.13;;;1.65;;
47309;SDS011;33046;52.270;6.832;2024-02-04T04:29:48;8.35;;;1.90;;
47309;SDS011;33046;52.270;6.832;2024-02-04T04:31:55;7.72;;;2.78;;
47309;SDS011;33046;52.270;6.832;2024-02-04T04:34:02;4.90;;;2.15;;
47309;SDS011;33046;52.270;6.832;2024-02-04T04:36:09;5.72;;;1.70;;
47309;SDS011;33046;52.270;6.832;2024-02-04T04:38:17;5.40;;;1.48;;
47309;SDS011;33046;52.270;6.832;2024-02-04T04:40:24;6.93;;;1.58;;
47309;SDS011;33046;52.270;6.832;2024-02-04T04:42:31;4.88;;;1.33;;
47309;SDS011;33046;52.270;6.832;2024-02-04T04:44:38;9.55;;;3.15;;
47309;SDS011;33046;52.270;6.832;2024-02-04T04:46:44;3.35;;;1.20;;
47309;SDS011;33046;52.270;6.832;2024-02-04T04:48:51;5.72;;;1.15;;
47309;SDS011;33046;52.270;6.832;2024-02-04T04:50:58;7.43;;;1.48;;
47309;SDS011;33046;52.270;6.832;2024-02-04T04:53:05;4.00;;;1.15;;
47309;SDS011;33046;52.270;6.832;2024-02-04T04:55:13;5.07;;;1.20;;
47309;SDS011;33046;52.270;6.832;2024-02-04T04:57:20;4.00;;;1.25;;
47309;SDS011;33046;52.270;6.832;2024-02-04T04:59:27;3.25;;;0.98;;
47309;SDS011;33046;52.270;6.832;2024-02-04T05:01:34;5.78;;;1.00;;
47309;SDS011;33046;52.270;6.832;2024-02-04T05:03:41;4.10;;;1.75;;
47309;SDS011;33046;52.270;6.832;2024-02-04T05:05:48;4.40;;;1.77;;
47309;SDS011;33046;52.270;6.832;2024-02-04T05:07:55;3.63;;;1.38;;
47309;SDS011;33046;52.270;6.832;2024-02-04T05:10:02;4.78;;;1.00;;
47309;SDS011;33046;52.270;6.832;2024-02-04T05:12:11;9.75;;;1.20;;
47309;SDS011;33046;52.270;6.832;2024-02-04T05:14:18;5.97;;;1.00;;
47309;SDS011;33046;52.270;6.832;2024-02-04T05:16:24;6.63;;;1.20;;
47309;SDS011;33046;52.270;6.832;2024-02-04T05:18:31;4.03;;;0.93;;
47309;SDS011;33046;52.270;6.832;2024-02-04T05:20:38;4.68;;;1.17;;
47309;SDS011;33046;52.270;6.832;2024-02-04T05:22:45;5.45;;;1.00;;
47309;SDS011;33046;52.270;6.832;2024-02-04T05:24:52;5.15;;;1.67;;
47309;SDS011;33046;52.270;6.832;2024-02-04T05:26:59;4.22;;;0.98;;
47309;SDS011;33046;52.270;6.832;2024-02-04T05:29:07;6.50;;;1.40;;
47309;SDS011;33046;52.270;6.832;2024-02-04T05:31:14;3.75;;;1.23;;
47309;SDS011;33046;52.270;6.832;2024-02-04T05:33:21;3.60;;;1.20;;
47309;SDS011;33046;52.270;6.832;2024-02-04T05:35:28;8.30;;;2.25;;
47309;SDS011;33046;52.270;6.832;2024-02-04T05:37:34;4.70;;;1.30;;
47309;SDS011;33046;52.270;6.832;2024-02-04T05:39:41;3.88;;;1.30;;
47309;SDS011;33046;52.270;6.832;2024-02-04T05:41:48;4.63;;;1.90;;
47309;SDS011;33046;52.270;6.832;2024-02-04T05:43:55;4.03;;;1.55;;
47309;SDS011;33046;52.270;6.832;2024-02-04T05:46:03;4.00;;;1.50;;
47309;SDS011;33046;52.270;6.832;2024-02-04T05:48:10;3.95;;;1.25;;
47309;SDS011;33046;52.270;6.832;2024-02-04T05:50:17;8.55;;;1.38;;
47309;SDS011;33046;52.270;6.832;2024-02-04T05:52:24;5.93;;;1.50;;
47309;SDS011;33046;52.270;6.832;2024-02-04T05:54:31;5.20;;;1.42;;
47309;SDS011;33046;52.270;6.832;2024-02-04T05:56:38;5.80;;;2.20;;
47309;SDS011;33046;52.270;6.832;2024-02-04T05:58:45;5.78;;;1.50;;
47309;SDS011;33046;52.270;6.832;2024-02-04T06:00:51;6.22;;;1.08;;
47309;SDS011;33046;52.270;6.832;2024-02-04T06:03:00;5.72;;;1.10;;
47309;SDS011;33046;52.270;6.832;2024-02-04T06:05:07;5.07;;;1.15;;
47309;SDS011;33046;52.270;6.832;2024-02-04T06:07:14;4.40;;;1.10;;
47309;SDS011;33046;52.270;6.832;2024-02-04T06:09:21;7.13;;;1.20;;
47309;SDS011;33046;52.270;6.832;2024-02-04T06:11:28;5.60;;;1.10;;
47309;SDS011;33046;52.270;6.832;2024-02-04T06:13:34;5.45;;;1.10;;
47309;SDS011;33046;52.270;6.832;2024-02-04T06:15:41;5.65;;;1.00;;
47309;SDS011;33046;52.270;6.832;2024-02-04T06:17:48;4.30;;;0.85;;
47309;SDS011;33046;52.270;6.832;2024-02-04T06:19:56;5.95;;;1.00;;
47309;SDS011;33046;52.270;6.832;2024-02-04T06:22:03;5.50;;;1.73;;
47309;SDS011;33046;52.270;6.832;2024-02-04T06:24:10;4.13;;;0.95;;
47309;SDS011;33046;52.270;6.832;2024-02-04T06:26:17;6.88;;;1.00;;
47309;SDS011;33046;52.270;6.832;2024-02-04T06:28:24;5.45;;;0.95;;
47309;SDS011;33046;52.270;6.832;2024-02-04T06:30:31;8.52;;;1.73;;
47309;SDS011;33046;52.270;6.832;2024-02-04T06:32:38;7.05;;;1.40;;
47309;SDS011;33046;52.270;6.832;2024-02-04T06:34:44;3.40;;;0.90;;
47309;SDS011;33046;52.270;6.832;2024-02-04T06:36:53;6.45;;;0.80;;
47309;SDS011;33046;52.270;6.832;2024-02-04T06:39:00;5.47;;;0.82;;
47309;SDS011;33046;52.270;6.832;2024-02-04T06:41:06;4.50;;;0.85;;
47309;SDS011;33046;52.270;6.832;2024-02-04T06:43:13;4.88;;;1.63;;
47309;SDS011;33046;52.270;6.832;2024-02-04T06:45:20;5.55;;;1.58;;
47309;SDS011;33046;52.270;6.832;2024-02-04T06:47:27;5.05;;;1.20;;
47309;SDS011;33046;52.270;6.832;2024-02-04T06:49:34;12.10;;;1.25;;
47309;SDS011;33046;52.270;6.832;2024-02-04T06:51:41;5.45;;;0.90;;
47309;SDS011;33046;52.270;6.832;2024-02-04T06:53:49;6.95;;;1.00;;
47309;SDS011;33046;52.270;6.832;2024-02-04T06:55:56;6.63;;;1.30;;
47309;SDS011;33046;52.270;6.832;2024-02-04T06:58:03;10.13;;;2.72;;
47309;SDS011;33046;52.270;6.832;2024-02-04T07:00:10;7.07;;;1.40;;
47309;SDS011;33046;52.270;6.832;2024-02-04T07:02:17;5.40;;;0.80;;
47309;SDS011;33046;52.270;6.832;2024-02-04T07:04:24;5.55;;;0.88;;
47309;SDS011;33046;52.270;6.832;2024-02-04T07:06:31;9.23;;;1.98;;
47309;SDS011;33046;52.270;6.832;2024-02-04T07:08:38;3.75;;;0.70;;
47309;SDS011;33046;52.270;6.832;2024-02-04T07:10:46;6.50;;;1.02;;
47309;SDS011;33046;52.270;6.832;2024-02-04T07:12:53;5.40;;;1.27;;
47309;SDS011;33046;52.270;6.832;2024-02-04T07:15:00;6.50;;;1.00;;
47309;SDS011;33046;52.270;6.832;2024-02-04T07:17:07;4.93;;;0.80;;
47309;SDS011;33046;52.270;6.832;2024-02-04T07:19:13;6.22;;;1.10;;
47309;SDS011;33046;52.270;6.832;2024-02-04T07:21:20;12.35;;;1.10;;
47309;SDS011;33046;52.270;6.832;2024-02-04T07:23:27;6.07;;;2.45;;
47309;SDS011;33046;52.270;6.832;2024-02-04T07:25:34;8.65;;;1.00;;
47309;SDS011;33046;52.270;6.832;2024-02-04T07:27:42;5.80;;;0.93;;
47309;SDS011;33046;52.270;6.832;2024-02-04T07:29:49;6.38;;;1.73;;
47309;SDS011;33046;52.270;6.832;2024-02-04T07:31:56;6.03;;;1.10;;
47309;SDS011;33046;52.270;6.832;2024-02-04T07:34:03;8.35;;;1.63;;
47309;SDS011;33046;52.270;6.832;2024-02-04T07:36:10;6.07;;;1.10;;
47309;SDS011;33046;52.270;6.832;2024-02-04T07:38:17;8.73;;;1.10;;
47309;SDS011;33046;52.270;6.832;2024-02-04T07:40:24;7.40;;;1.70;;
47309;SDS011;33046;52.270;6.832;2024-02-04T07:42:31;19.98;;;4.88;;
47309;SDS011;33046;52.270;6.832;2024-02-04T07:44:39;8.93;;;1.27;;
47309;SDS011;33046;52.270;6.832;2024-02-04T07:46:46;8.52;;;1.30;;
47309;SDS011;33046;52.270;6.832;2024-02-04T07:48:53;8.98;;;1.40;;
47309;SDS011;33046;52.270;6.832;2024-02-04T07:50:59;7.45;;;0.98;;
47309;SDS011;33046;52.270;6.832;2024-02-04T07:53:06;6.53;;;0.93;;
47309;SDS011;33046;52.270;6.832;2024-02-04T07:55:13;6.35;;;1.20;;
47309;SDS011;33046;52.270;6.832;2024-02-04T07:57:20;5.43;;;1.90;;
47309;SDS011;33046;52.270;6.832;2024-02-04T07:59:27;4.63;;;0.98;;
47309;SDS011;33046;52.270;6.832;2024-02-04T08:01:36;6.75;;;0.90;;
47309;SDS011;33046;52.270;6.832;2024-02-04T08:03:43;12.82;;;2.55;;
47309;SDS011;33046;52.270;6.832;2024-02-04T08:05:50;11.07;;;1.50;;
47309;SDS011;33046;52.270;6.832;2024-02-04T08:07:57;5.80;;;1.67;;
47309;SDS011;33046;52.270;6.832;2024-02-04T08:10:04;5.07;;;1.38;;
47309;SDS011;33046;52.270;6.832;2024-02-04T08:12:12;7.90;;;1.15;;
47309;SDS011;33046;52.270;6.832;2024-02-04T08:14:19;6.50;;;1.85;;
47309;SDS011;33046;52.270;6.832;2024-02-04T08:16:26;7.65;;;1.10;;
47309;SDS011;33046;52.270;6.832;2024-02-04T08:18:34;6.20;;;1.67;;
47309;SDS011;33046;52.270;6.832;2024-02-04T08:20:41;7.55;;;1.30;;
47309;SDS011;33046;52.270;6.832;2024-02-04T08:22:47;9.15;;;1.27;;
47309;SDS011;33046;52.270;6.832;2024-02-04T08:24:54;9.68;;;3.08;;
47309;SDS011;33046;52.270;6.832;2024-02-04T08:27:01;4.28;;;1.00;;
47309;SDS011;33046;52.270;6.832;2024-02-04T08:29:08;5.57;;;1.20;;
47309;SDS011;33046;52.270;6.832;2024-02-04T08:31:15;3.83;;;1.02;;
47309;SDS011;33046;52.270;6.832;2024-02-04T08:33:22;4.28;;;1.70;;
47309;SDS011;33046;52.270;6.832;2024-02-04T08:35:31;7.72;;;2.10;;
47309;SDS011;33046;52.270;6.832;2024-02-04T08:37:37;6.18;;;1.40;;
47309;SDS011;33046;52.270;6.832;2024-02-04T08:39:44;7.38;;;2.13;;
47309;SDS011;33046;52.270;6.832;2024-02-04T08:41:51;5.18;;;1.20;;
47309;SDS011;33046;52.270;6.832;2024-02-04T08:43:58;7.25;;;1.23;;
47309;SDS011;33046;52.270;6.832;2024-02-04T08:46:07;7.20;;;1.70;;
47309;SDS011;33046;52.270;6.832;2024-02-04T08:48:15;7.05;;;1.48;;
47309;SDS011;33046;52.270;6.832;2024-02-04T08:50:22;6.45;;;1.40;;
47309;SDS011;33046;52.270;6.832;2024-02-04T08:52:30;6.40;;;1.40;;
47309;SDS011;33046;52.270;6.832;2024-02-04T08:54:37;3.13;;;1.10;;
47309;SDS011;33046;52.270;6.832;2024-02-04T08:56:44;7.18;;;2.53;;
47309;SDS011;33046;52.270;6.832;2024-02-04T08:58:51;3.63;;;1.13;;
47309;SDS011;33046;52.270;6.832;2024-02-04T09:00:58;2.85;;;0.98;;
47309;SDS011;33046;52.270;6.832;2024-02-04T09:03:05;6.00;;;1.25;;
47309;SDS011;33046;52.270;6.832;2024-02-04T09:05:12;4.45;;;1.10;;
47309;SDS011;33046;52.270;6.832;2024-02-04T09:07:19;9.43;;;2.53;;
47309;SDS011;33046;52.270;6.832;2024-02-04T09:09:27;4.28;;;1.08;;
47309;SDS011;33046;52.270;6.832;2024-02-04T09:11:34;4.40;;;0.93;;
47309;SDS011;33046;52.270;6.832;2024-02-04T09:13:41;6.30;;;2.47;;
47309;SDS011;33046;52.270;6.832;2024-02-04T09:15:48;6.25;;;2.55;;
47309;SDS011;33046;52.270;6.832;2024-02-04T09:17:55;3.47;;;0.88;;
47309;SDS011;33046;52.270;6.832;2024-02-04T09:20:02;5.85;;;1.20;;
47309;SDS011;33046;52.270;6.832;2024-02-04T09:22:09;5.18;;;1.20;;
47309;SDS011;33046;52.270;6.832;2024-02-04T09:24:16;3.30;;;1.15;;
47309;SDS011;33046;52.270;6.832;2024-02-04T09:26:24;2.05;;;0.90;;
47309;SDS011;33046;52.270;6.832;2024-02-04T09:28:31;3.67;;;1.13;;
47309;SDS011;33046;52.270;6.832;2024-02-04T09:30:38;7.20;;;1.08;;
47309;SDS011;33046;52.270;6.832;2024-02-04T09:32:44;4.13;;;1.10;;
47309;SDS011;33046;52.270;6.832;2024-02-04T09:34:51;3.17;;;1.30;;
47309;SDS011;33046;52.270;6.832;2024-02-04T09:36:58;7.15;;;1.88;;
47309;SDS011;33046;52.270;6.832;2024-02-04T09:39:06;4.32;;;1.20;;
47309;SDS011;33046;52.270;6.832;2024-02-04T09:41:12;6.65;;;1.38;;
47309;SDS011;33046;52.270;6.832;2024-02-04T09:43:21;5.70;;;2.08;;
47309;SDS011;33046;52.270;6.832;2024-02-04T09:45:28;5.13;;;1.25;;
47309;SDS011;33046;52.270;6.832;2024-02-04T09:47:35;10.23;;;2.15;;
47309;SDS011;33046;52.270;6.832;2024-02-04T09:49:43;6.80;;;1.40;;
47309;SDS011;33046;52.270;6.832;2024-02-04T09:51:50;4.15;;;1.65;;
47309;SDS011;33046;52.270;6.832;2024-02-04T09:53:58;3.00;;;1.40;;
47309;SDS011;33046;52.270;6.832;2024-02-04T09:58:18;5.55;;;1.38;;
47309;SDS011;33046;52.270;6.832;2024-02-04T10:00:27;5.97;;;1.88;;
47309;SDS011;33046;52.270;6.832;2024-02-04T10:02:35;4.22;;;1.70;;
47309;SDS011;33046;52.270;6.832;2024-02-04T10:04:42;2.15;;;1.90;;
47309;SDS011;33046;52.270;6.832;2024-02-04T10:06:49;8.55;;;2.20;;
47309;SDS011;33046;52.270;6.832;2024-02-04T10:08:56;8.52;;;2.97;;
47309;SDS011;33046;52.270;6.832;2024-02-04T10:11:03;2.95;;;1.83;;
47309;SDS011;33046;52.270;6.832;2024-02-04T10:13:10;5.25;;;1.90;;
47309;SDS011;33046;52.270;6.832;2024-02-04T10:15:17;5.18;;;2.75;;
47309;SDS011;33046;52.270;6.832;2024-02-04T10:17:25;4.88;;;2.50;;
47309;SDS011;33046;52.270;6.832;2024-02-04T10:19:32;5.13;;;2.65;;
47309;SDS011;33046;52.270;6.832;2024-02-04T10:21:39;5.40;;;2.10;;
47309;SDS011;33046;52.270;6.832;2024-02-04T10:23:46;6.82;;;2.17;;
47309;SDS011;33046;52.270;6.832;2024-02-04T10:25:57;5.72;;;2.65;;
47309;SDS011;33046;52.270;6.832;2024-02-04T10:28:04;5.18;;;2.15;;
47309;SDS011;33046;52.270;6.832;2024-02-04T10:30:12;4.20;;;2.05;;
47309;SDS011;33046;52.270;6.832;2024-02-04T10:32:21;7.13;;;3.45;;
47309;SDS011;33046;52.270;6.832;2024-02-04T10:34:30;6.82;;;2.47;;
47309;SDS011;33046;52.270;6.832;2024-02-04T10:36:37;6.63;;;4.20;;
47309;SDS011;33046;52.270;6.832;2024-02-04T10:38:44;5.10;;;3.10;;
47309;SDS011;33046;52.270;6.832;2024-02-04T10:40:53;4.13;;;2.05;;
47309;SDS011;33046;52.270;6.832;2024-02-04T10:43:04;5.88;;;2.42;;
47309;SDS011;33046;52.270;6.832;2024-02-04T10:45:11;5.13;;;2.70;;
47309;SDS011;33046;52.270;6.832;2024-02-04T10:47:22;7.38;;;2.53;;
47309;SDS011;33046;52.270;6.832;2024-02-04T10:49:30;6.47;;;3.08;;
47309;SDS011;33046;52.270;6.832;2024-02-04T10:51:40;6.40;;;2.30;;
47309;SDS011;33046;52.270;6.832;2024-02-04T10:53:48;5.18;;;2.30;;
47309;SDS011;33046;52.270;6.832;2024-02-04T10:55:58;3.97;;;2.40;;
47309;SDS011;33046;52.270;6.832;2024-02-04T10:58:13;5.28;;;2.15;;
47309;SDS011;33046;52.270;6.832;2024-02-04T11:00:20;5.55;;;2.67;;
47309;SDS011;33046;52.270;6.832;2024-02-04T11:02:27;5.63;;;2.72;;
47309;SDS011;33046;52.270;6.832;2024-02-04T11:04:36;4.95;;;2.00;;
47309;SDS011;33046;52.270;6.832;2024-02-04T11:06:44;4.93;;;2.13;;
47309;SDS011;33046;52.270;6.832;2024-02-04T11:08:51;4.03;;;2.08;;
47309;SDS011;33046;52.270;6.832;2024-02-04T11:11:00;3.72;;;2.08;;
47309;SDS011;33046;52.270;6.832;2024-02-04T11:13:07;3.65;;;1.98;;
47309;SDS011;33046;52.270;6.832;2024-02-04T11:15:16;4.05;;;2.45;;
47309;SDS011;33046;52.270;6.832;2024-02-04T11:20:01;5.07;;;1.60;;
47309;SDS011;33046;52.270;6.832;2024-02-04T11:22:25;4.35;;;1.70;;
47309;SDS011;33046;52.270;6.832;2024-02-04T11:24:53;2.78;;;1.85;;
47309;SDS011;33046;52.270;6.832;2024-02-04T11:27:09;2.80;;;1.27;;
47309;SDS011;33046;52.270;6.832;2024-02-04T11:29:16;4.55;;;1.50;;
47309;SDS011;33046;52.270;6.832;2024-02-04T11:31:23;2.53;;;1.30;;
47309;SDS011;33046;52.270;6.832;2024-02-04T11:33:35;1.80;;;1.20;;
47309;SDS011;33046;52.270;6.832;2024-02-04T11:35:43;3.53;;;1.20;;
47309;SDS011;33046;52.270;6.832;2024-02-04T11:37:50;5.32;;;2.17;;
47309;SDS011;33046;52.270;6.832;2024-02-04T11:40:00;2.28;;;1.00;;
47309;SDS011;33046;52.270;6.832;2024-02-04T11:42:13;3.97;;;1.00;;
47309;SDS011;33046;52.270;6.832;2024-02-04T11:44:21;2.97;;;0.90;;
47309;SDS011;33046;52.270;6.832;2024-02-04T11:46:29;3.92;;;1.27;;
47309;SDS011;33046;52.270;6.832;2024-02-04T11:48:36;3.38;;;0.90;;
47309;SDS011;33046;52.270;6.832;2024-02-04T11:50:51;1.67;;;0.60;;
47309;SDS011;33046;52.270;6.832;2024-02-04T11:53:02;2.42;;;0.60;;
47309;SDS011;33046;52.270;6.832;2024-02-04T11:55:15;1.85;;;0.75;;
47309;SDS011;33046;52.270;6.832;2024-02-04T11:57:22;5.60;;;0.80;;
47309;SDS011;33046;52.270;6.832;2024-02-04T11:59:30;2.45;;;0.70;;
47309;SDS011;33046;52.270;6.832;2024-02-04T12:01:37;2.28;;;0.70;;
47309;SDS011;33046;52.270;6.832;2024-02-04T12:03:44;1.58;;;0.60;;
47309;SDS011;33046;52.270;6.832;2024-02-04T12:05:52;1.92;;;0.65;;
47309;SDS011;33046;52.270;6.832;2024-02-04T12:07:59;4.20;;;1.60;;
47309;SDS011;33046;52.270;6.832;2024-02-04T12:10:08;2.38;;;0.60;;
47309;SDS011;33046;52.270;6.832;2024-02-04T12:12:15;3.25;;;0.63;;
47309;SDS011;33046;52.270;6.832;2024-02-04T12:14:23;3.42;;;0.80;;
47309;SDS011;33046;52.270;6.832;2024-02-04T12:16:31;1.63;;;0.50;;
47309;SDS011;33046;52.270;6.832;2024-02-04T12:18:47;1.58;;;0.50;;
47309;SDS011;33046;52.270;6.832;2024-02-04T12:20:55;1.58;;;0.50;;
47309;SDS011;33046;52.270;6.832;2024-02-04T12:23:03;1.13;;;0.50;;
47309;SDS011;33046;52.270;6.832;2024-02-04T12:25:10;0.85;;;0.35;;
47309;SDS011;33046;52.270;6.832;2024-02-04T12:27:18;7.25;;;1.67;;
47309;SDS011;33046;52.270;6.832;2024-02-04T12:29:25;2.63;;;0.60;;
47309;SDS011;33046;52.270;6.832;2024-02-04T12:31:32;1.85;;;0.38;;
47309;SDS011;33046;52.270;6.832;2024-02-04T12:33:38;2.38;;;0.60;;
47309;SDS011;33046;52.270;6.832;2024-02-04T12:35:48;0.88;;;0.40;;
47309;SDS011;33046;52.270;6.832;2024-02-04T12:37:58;1.45;;;0.50;;
47309;SDS011;33046;52.270;6.832;2024-02-04T12:40:06;1.17;;;0.38;;
47309;SDS011;33046;52.270;6.832;2024-02-04T12:42:14;0.55;;;0.30;;
47309;SDS011;33046;52.270;6.832;2024-02-04T12:44:21;1.80;;;0.47;;
47309;SDS011;33046;52.270;6.832;2024-02-04T12:46:28;1.90;;;0.40;;
47309;SDS011;33046;52.270;6.832;2024-02-04T12:48:35;2.97;;;0.30;;
47309;SDS011;33046;52.270;6.832;2024-02-04T12:50:43;0.95;;;0.40;;
47309;SDS011;33046;52.270;6.832;2024-02-04T12:53:03;3.30;;;0.85;;